sensor_id;sensor_type;location;lat;lon;timestamp;pressure;altitude;pressure_sealevel;temperature;humidity
9695;BME280;4690;52.422;13.486;2023-05-23T00:06:13;100879.88;;;20.59;42.27
9695;BME280;4690;52.422;13.486;2023-05-23T00:08:39;100882.13;;;20.57;42.89
9695;BME280;4690;52.422;13.486;2023-05-23T00:11:05;100875.72;;;20.57;43.52
9695;BME280;4690;52.422;13.486;2023-05-23T00:13:31;100873.53;;;20.54;42.97
9695;BME280;4690;52.422;13.486;2023-05-23T00:15:59;100868.78;;;20.49;42.86
9695;BME280;4690;52.422;13.486;2023-05-23T00:18:25;100873.84;;;20.47;42.76
9695;BME280;4690;52.422;13.486;2023-05-23T00:20:51;100872.72;;;20.43;42.60
9695;BME280;4690;52.422;13.486;2023-05-23T00:23:16;100868.00;;;20.44;43.19
9695;BME280;4690;52.422;13.486;2023-05-23T00:25:47;100865.22;;;20.44;43.99
9695;BME280;4690;52.422;13.486;2023-05-23T00:28:17;100862.75;;;20.37;44.35
9695;BME280;4690;52.422;13.486;2023-05-23T00:30:43;100858.91;;;20.33;44.64
9695;BME280;4690;52.422;13.486;2023-05-23T00:33:09;100847.25;;;20.26;44.47
9695;BME280;4690;52.422;13.486;2023-05-23T00:35:35;100845.88;;;20.23;45.03
9695;BME280;4690;52.422;13.486;2023-05-23T00:38:00;100853.16;;;20.19;44.32
9695;BME280;4690;52.422;13.486;2023-05-23T00:40:27;100842.63;;;20.16;44.95
9695;BME280;4690;52.422;13.486;2023-05-23T00:42:52;100844.84;;;20.14;44.79
9695;BME280;4690;52.422;13.486;2023-05-23T00:45:18;100845.13;;;20.12;44.64
9695;BME280;4690;52.422;13.486;2023-05-23T00:47:46;100846.53;;;20.10;44.90
9695;BME280;4690;52.422;13.486;2023-05-23T00:50:14;100841.56;;;20.02;44.42
9695;BME280;4690;52.422;13.486;2023-05-23T00:52:42;100832.38;;;20.01;43.78
9695;BME280;4690;52.422;13.486;2023-05-23T00:55:09;100835.75;;;19.98;43.52
9695;BME280;4690;52.422;13.486;2023-05-23T00:57:36;100840.75;;;19.96;44.35
9695;BME280;4690;52.422;13.486;2023-05-23T01:00:11;100834.38;;;19.96;43.45
9695;BME280;4690;52.422;13.486;2023-05-23T01:02:44;100838.28;;;19.95;43.45
9695;BME280;4690;52.422;13.486;2023-05-23T01:05:12;100833.84;;;19.93;42.90
9695;BME280;4690;52.422;13.486;2023-05-23T01:07:49;100826.59;;;19.92;43.65
9695;BME280;4690;52.422;13.486;2023-05-23T01:10:19;100820.22;;;19.92;43.25
9695;BME280;4690;52.422;13.486;2023-05-23T01:21:18;100816.38;;;19.88;45.91
9695;BME280;4690;52.422;13.486;2023-05-23T01:29:26;100803.59;;;19.82;46.24
9695;BME280;4690;52.422;13.486;2023-05-23T01:31:56;100813.88;;;19.81;45.86
9695;BME280;4690;52.422;13.486;2023-05-23T01:34:23;100816.97;;;19.80;46.16
9695;BME280;4690;52.422;13.486;2023-05-23T01:36:53;100820.03;;;19.78;46.25
9695;BME280;4690;52.422;13.486;2023-05-23T01:39:21;100813.09;;;19.76;46.73
9695;BME280;4690;52.422;13.486;2023-05-23T01:41:49;100810.59;;;19.74;47.23
9695;BME280;4690;52.422;13.486;2023-05-23T01:44:16;100806.13;;;19.73;46.97
9695;BME280;4690;52.422;13.486;2023-05-23T01:46:43;100802.53;;;19.73;46.64
9695;BME280;4690;52.422;13.486;2023-05-23T01:49:11;100799.19;;;19.70;45.79
9695;BME280;4690;52.422;13.486;2023-05-23T01:51:39;100793.13;;;19.68;44.99
9695;BME280;4690;52.422;13.486;2023-05-23T01:54:05;100782.00;;;19.68;44.85
9695;BME280;4690;52.422;13.486;2023-05-23T01:56:32;100787.81;;;19.67;44.83
9695;BME280;4690;52.422;13.486;2023-05-23T01:58:59;100784.78;;;19.68;44.96
9695;BME280;4690;52.422;13.486;2023-05-23T02:01:26;100789.47;;;19.68;44.83
9695;BME280;4690;52.422;13.486;2023-05-23T02:03:52;100788.66;;;19.62;44.52
9695;BME280;4690;52.422;13.486;2023-05-23T02:06:18;100786.19;;;19.56;45.29
9695;BME280;4690;52.422;13.486;2023-05-23T02:08:43;100786.16;;;19.61;45.66
9695;BME280;4690;52.422;13.486;2023-05-23T02:11:10;100792.81;;;19.65;45.67
9695;BME280;4690;52.422;13.486;2023-05-23T02:13:36;100791.16;;;19.64;44.88
9695;BME280;4690;52.422;13.486;2023-05-23T02:16:01;100797.84;;;19.63;44.69
9695;BME280;4690;52.422;13.486;2023-05-23T02:18:28;100797.84;;;19.63;45.40
9695;BME280;4690;52.422;13.486;2023-05-23T02:20:55;100803.41;;;19.63;45.49
9695;BME280;4690;52.422;13.486;2023-05-23T02:23:21;100797.00;;;19.62;45.45
9695;BME280;4690;52.422;13.486;2023-05-23T02:25:47;100798.94;;;19.62;45.24
9695;BME280;4690;52.422;13.486;2023-05-23T02:28:13;100797.28;;;19.66;46.15
9695;BME280;4690;52.422;13.486;2023-05-23T02:30:39;100795.59;;;19.65;47.22
9695;BME280;4690;52.422;13.486;2023-05-23T02:33:05;100782.25;;;19.62;47.49
9695;BME280;4690;52.422;13.486;2023-05-23T02:35:32;100779.47;;;19.62;45.95
9695;BME280;4690;52.422;13.486;2023-05-23T02:37:59;100780.06;;;19.59;45.79
9695;BME280;4690;52.422;13.486;2023-05-23T02:40:25;100787.84;;;19.57;46.32
9695;BME280;4690;52.422;13.486;2023-05-23T02:42:51;100780.94;;;19.54;46.89
9695;BME280;4690;52.422;13.486;2023-05-23T02:45:17;100780.06;;;19.54;47.15
9695;BME280;4690;52.422;13.486;2023-05-23T02:47:43;100777.88;;;19.51;46.95
9695;BME280;4690;52.422;13.486;2023-05-23T02:50:09;100776.22;;;19.49;47.53
9695;BME280;4690;52.422;13.486;2023-05-23T02:52:35;100770.66;;;19.49;47.66
9695;BME280;4690;52.422;13.486;2023-05-23T02:55:01;100777.34;;;19.48;48.15
9695;BME280;4690;52.422;13.486;2023-05-23T02:57:27;100775.97;;;19.46;48.58
9695;BME280;4690;52.422;13.486;2023-05-23T02:59:52;100777.88;;;19.45;48.73
9695;BME280;4690;52.422;13.486;2023-05-23T03:02:18;100778.19;;;19.44;49.01
9695;BME280;4690;52.422;13.486;2023-05-23T03:04:44;100781.81;;;19.44;49.04
9695;BME280;4690;52.422;13.486;2023-05-23T03:07:10;100782.09;;;19.43;49.05
9695;BME280;4690;52.422;13.486;2023-05-23T03:09:38;100789.31;;;19.44;49.38
9695;BME280;4690;52.422;13.486;2023-05-23T03:12:04;100779.31;;;19.43;49.55
9695;BME280;4690;52.422;13.486;2023-05-23T03:14:30;100787.66;;;19.43;49.79
9695;BME280;4690;52.422;13.486;2023-05-23T03:16:56;100786.81;;;19.42;49.64
9695;BME280;4690;52.422;13.486;2023-05-23T03:19:22;100778.78;;;19.41;50.02
9695;BME280;4690;52.422;13.486;2023-05-23T03:21:49;100783.19;;;19.42;50.42
9695;BME280;4690;52.422;13.486;2023-05-23T03:24:15;100799.88;;;19.42;50.37
9695;BME280;4690;52.422;13.486;2023-05-23T03:26:41;100804.59;;;19.41;50.38
9695;BME280;4690;52.422;13.486;2023-05-23T03:29:07;100801.28;;;19.39;50.61
9695;BME280;4690;52.422;13.486;2023-05-23T03:31:35;100795.13;;;19.42;50.69
9695;BME280;4690;52.422;13.486;2023-05-23T03:34:02;100789.88;;;19.41;50.76
9695;BME280;4690;52.422;13.486;2023-05-23T03:36:30;100782.94;;;19.38;50.39
9695;BME280;4690;52.422;13.486;2023-05-23T03:38:58;100793.25;;;19.38;50.18
9695;BME280;4690;52.422;13.486;2023-05-23T03:41:24;100773.22;;;19.36;49.51
9695;BME280;4690;52.422;13.486;2023-05-23T03:43:51;100783.25;;;19.32;49.80
9695;BME280;4690;52.422;13.486;2023-05-23T03:46:16;100777.41;;;19.28;49.13
9695;BME280;4690;52.422;13.486;2023-05-23T03:48:43;100773.00;;;19.27;49.51
9695;BME280;4690;52.422;13.486;2023-05-23T03:51:09;100762.16;;;19.25;49.02
9695;BME280;4690;52.422;13.486;2023-05-23T03:53:34;100768.00;;;19.24;49.01
9695;BME280;4690;52.422;13.486;2023-05-23T03:56:00;100755.22;;;19.23;49.69
9695;BME280;4690;52.422;13.486;2023-05-23T03:58:26;100753.56;;;19.22;50.34
9695;BME280;4690;52.422;13.486;2023-05-23T04:00:51;100746.91;;;19.18;50.09
9695;BME280;4690;52.422;13.486;2023-05-23T04:03:19;100741.94;;;19.15;49.91
9695;BME280;4690;52.422;13.486;2023-05-23T04:05:45;100748.84;;;19.17;49.01
9695;BME280;4690;52.422;13.486;2023-05-23T04:08:11;100739.97;;;19.15;48.89
9695;BME280;4690;52.422;13.486;2023-05-23T04:10:37;100740.81;;;19.16;48.73
9695;BME280;4690;52.422;13.486;2023-05-23T04:13:03;100743.84;;;19.14;48.39
9695;BME280;4690;52.422;13.486;2023-05-23T04:15:29;100754.16;;;19.14;48.49
9695;BME280;4690;52.422;13.486;2023-05-23T04:17:54;100764.16;;;19.15;49.19
9695;BME280;4690;52.422;13.486;2023-05-23T04:20:21;100778.06;;;19.15;50.32
9695;BME280;4690;52.422;13.486;2023-05-23T04:22:46;100799.97;;;19.16;50.53
9695;BME280;4690;52.422;13.486;2023-05-23T04:25:12;100799.41;;;19.14;50.51
9695;BME280;4690;52.422;13.486;2023-05-23T04:27:38;100796.06;;;19.17;49.92
9695;BME280;4690;52.422;13.486;2023-05-23T04:30:06;100790.50;;;19.17;50.94
9695;BME280;4690;52.422;13.486;2023-05-23T04:32:34;100779.69;;;19.16;50.50
9695;BME280;4690;52.422;13.486;2023-05-23T04:34:59;100774.72;;;19.13;50.31
9695;BME280;4690;52.422;13.486;2023-05-23T04:37:27;100776.09;;;19.15;48.99
9695;BME280;4690;52.422;13.486;2023-05-23T04:39:53;100783.31;;;19.16;49.59
9695;BME280;4690;52.422;13.486;2023-05-23T04:42:19;100769.72;;;19.15;48.99
9695;BME280;4690;52.422;13.486;2023-05-23T04:44:49;100770.00;;;19.13;48.60
9695;BME280;4690;52.422;13.486;2023-05-23T04:47:16;100763.59;;;19.13;47.97
9695;BME280;4690;52.422;13.486;2023-05-23T04:49:42;100761.63;;;19.18;48.78
9695;BME280;4690;52.422;13.486;2023-05-23T04:52:08;100749.94;;;19.21;50.37
9695;BME280;4690;52.422;13.486;2023-05-23T04:54:34;100765.25;;;19.19;50.48
9695;BME280;4690;52.422;13.486;2023-05-23T04:57:01;100771.06;;;19.17;52.27
9695;BME280;4690;52.422;13.486;2023-05-23T04:59:26;100769.16;;;19.18;53.29
9695;BME280;4690;52.422;13.486;2023-05-23T05:01:52;100765.25;;;19.14;53.08
9695;BME280;4690;52.422;13.486;2023-05-23T05:04:18;100769.16;;;19.13;54.17
9695;BME280;4690;52.422;13.486;2023-05-23T05:06:44;100771.63;;;19.14;54.78
9695;BME280;4690;52.422;13.486;2023-05-23T05:09:12;100780.28;;;19.13;55.71
9695;BME280;4690;52.422;13.486;2023-05-23T05:11:38;100771.94;;;19.13;55.21
9695;BME280;4690;52.422;13.486;2023-05-23T05:14:04;100769.16;;;19.13;54.25
9695;BME280;4690;52.422;13.486;2023-05-23T05:16:29;100761.41;;;19.10;52.27
9695;BME280;4690;52.422;13.486;2023-05-23T05:18:55;100762.78;;;19.07;50.72
9695;BME280;4690;52.422;13.486;2023-05-23T05:21:21;100761.66;;;19.08;51.30
9695;BME280;4690;52.422;13.486;2023-05-23T05:23:47;100763.88;;;19.11;52.65
9695;BME280;4690;52.422;13.486;2023-05-23T05:26:13;100764.69;;;19.12;54.10
9695;BME280;4690;52.422;13.486;2023-05-23T05:28:38;100756.38;;;19.12;53.47
9695;BME280;4690;52.422;13.486;2023-05-23T05:31:05;100763.59;;;19.13;52.15
9695;BME280;4690;52.422;13.486;2023-05-23T05:33:31;100773.03;;;19.12;51.89
9695;BME280;4690;52.422;13.486;2023-05-23T05:36:05;100774.72;;;19.13;52.54
9695;BME280;4690;52.422;13.486;2023-05-23T05:38:31;100780.28;;;19.13;54.04
9695;BME280;4690;52.422;13.486;2023-05-23T05:40:57;100782.75;;;19.14;54.87
9695;BME280;4690;52.422;13.486;2023-05-23T05:43:25;100783.31;;;19.16;55.47
9695;BME280;4690;52.422;13.486;2023-05-23T05:45:50;100782.47;;;19.16;55.47
9695;BME280;4690;52.422;13.486;2023-05-23T05:48:16;100789.69;;;19.17;55.28
9695;BME280;4690;52.422;13.486;2023-05-23T05:50:42;100790.81;;;19.16;55.02
9695;BME280;4690;52.422;13.486;2023-05-23T05:53:12;100790.81;;;19.16;53.74
9695;BME280;4690;52.422;13.486;2023-05-23T05:55:38;100791.63;;;19.16;53.88
9695;BME280;4690;52.422;13.486;2023-05-23T05:58:04;100784.44;;;19.15;54.81
9695;BME280;4690;52.422;13.486;2023-05-23T06:00:30;100784.44;;;19.15;55.48
9695;BME280;4690;52.422;13.486;2023-05-23T06:02:56;100781.66;;;19.15;55.55
9695;BME280;4690;52.422;13.486;2023-05-23T06:05:23;100786.09;;;19.16;56.53
9695;BME280;4690;52.422;13.486;2023-05-23T06:07:49;100785.25;;;19.16;57.00
9695;BME280;4690;52.422;13.486;2023-05-23T06:10:15;100779.16;;;19.14;57.87
9695;BME280;4690;52.422;13.486;2023-05-23T06:12:41;100777.50;;;19.13;57.75
9695;BME280;4690;52.422;13.486;2023-05-23T06:15:08;100773.03;;;19.12;57.20
9695;BME280;4690;52.422;13.486;2023-05-23T06:17:34;100785.28;;;19.11;56.49
9695;BME280;4690;52.422;13.486;2023-05-23T06:20:00;100783.63;;;19.10;56.08
9695;BME280;4690;52.422;13.486;2023-05-23T06:22:26;100774.16;;;19.11;56.05
9695;BME280;4690;52.422;13.486;2023-05-23T06:24:51;100768.59;;;19.11;56.06
9695;BME280;4690;52.422;13.486;2023-05-23T06:27:17;100772.22;;;19.11;56.16
9695;BME280;4690;52.422;13.486;2023-05-23T06:29:43;100775.28;;;19.15;55.43
9695;BME280;4690;52.422;13.486;2023-05-23T06:32:09;100762.47;;;19.14;55.86
9695;BME280;4690;52.422;13.486;2023-05-23T06:34:34;100768.84;;;19.14;56.24
9695;BME280;4690;52.422;13.486;2023-05-23T06:37:00;100761.91;;;19.17;56.00
9695;BME280;4690;52.422;13.486;2023-05-23T06:39:26;100772.44;;;19.20;56.29
9695;BME280;4690;52.422;13.486;2023-05-23T06:41:53;100782.16;;;19.22;55.80
9695;BME280;4690;52.422;13.486;2023-05-23T06:44:18;100776.03;;;19.25;55.00
9695;BME280;4690;52.422;13.486;2023-05-23T06:46:45;100776.84;;;19.31;54.42
9695;BME280;4690;52.422;13.486;2023-05-23T06:49:12;100767.66;;;19.36;54.18
9695;BME280;4690;52.422;13.486;2023-05-23T06:51:38;100779.03;;;19.39;54.01
9695;BME280;4690;52.422;13.486;2023-05-23T06:54:04;100775.41;;;19.49;53.49
9695;BME280;4690;52.422;13.486;2023-05-23T06:56:30;100772.28;;;19.56;53.21
9695;BME280;4690;52.422;13.486;2023-05-23T06:58:56;100778.34;;;19.68;53.10
9695;BME280;4690;52.422;13.486;2023-05-23T07:01:21;100777.44;;;19.83;52.52
9695;BME280;4690;52.422;13.486;2023-05-23T07:03:47;100772.00;;;20.02;53.62
9695;BME280;4690;52.422;13.486;2023-05-23T07:06:13;100770.56;;;20.09;52.89
9695;BME280;4690;52.422;13.486;2023-05-23T07:08:39;100767.09;;;20.28;51.30
9695;BME280;4690;52.422;13.486;2023-05-23T07:11:05;100767.09;;;20.62;52.88
9695;BME280;4690;52.422;13.486;2023-05-23T07:13:31;100771.06;;;20.80;49.41
9695;BME280;4690;52.422;13.486;2023-05-23T07:15:57;100762.78;;;20.99;48.59
9695;BME280;4690;52.422;13.486;2023-05-23T07:18:23;100775.38;;;21.20;50.37
9695;BME280;4690;52.422;13.486;2023-05-23T07:20:49;100776.25;;;21.40;51.28
9695;BME280;4690;52.422;13.486;2023-05-23T07:23:15;100763.69;;;21.61;49.57
9695;BME280;4690;52.422;13.486;2023-05-23T07:25:41;100768.47;;;21.80;48.38
9695;BME280;4690;52.422;13.486;2023-05-23T07:28:08;100765.81;;;21.88;46.94
9695;BME280;4690;52.422;13.486;2023-05-23T07:30:34;100762.69;;;22.09;46.96
9695;BME280;4690;52.422;13.486;2023-05-23T07:33:00;100776.13;;;22.26;44.78
9695;BME280;4690;52.422;13.486;2023-05-23T07:35:26;100767.66;;;22.31;44.22
9695;BME280;4690;52.422;13.486;2023-05-23T07:37:52;100767.97;;;22.29;44.35
9695;BME280;4690;52.422;13.486;2023-05-23T07:40:21;100762.63;;;22.33;45.60
9695;BME280;4690;52.422;13.486;2023-05-23T07:42:47;100763.03;;;22.40;45.03
9695;BME280;4690;52.422;13.486;2023-05-23T07:45:13;100762.22;;;22.40;46.03
9695;BME280;4690;52.422;13.486;2023-05-23T07:47:40;100761.38;;;22.39;45.77
9695;BME280;4690;52.422;13.486;2023-05-23T07:50:07;100753.00;;;22.39;46.19
9695;BME280;4690;52.422;13.486;2023-05-23T07:52:34;100754.25;;;22.47;45.15
9695;BME280;4690;52.422;13.486;2023-05-23T07:55:00;100763.72;;;22.65;46.38
9695;BME280;4690;52.422;13.486;2023-05-23T07:57:25;100760.44;;;22.90;44.89
9695;BME280;4690;52.422;13.486;2023-05-23T07:59:52;100752.28;;;23.08;43.04
9695;BME280;4690;52.422;13.486;2023-05-23T08:02:19;100759.31;;;23.19;44.64
9695;BME280;4690;52.422;13.486;2023-05-23T08:04:46;100774.03;;;23.24;43.67
9695;BME280;4690;52.422;13.486;2023-05-23T08:07:12;100768.53;;;23.19;42.89
9695;BME280;4690;52.422;13.486;2023-05-23T08:09:39;100775.81;;;23.20;43.43
9695;BME280;4690;52.422;13.486;2023-05-23T08:12:06;100772.78;;;23.17;43.17
9695;BME280;4690;52.422;13.486;2023-05-23T08:14:32;100781.69;;;23.19;44.55
9695;BME280;4690;52.422;13.486;2023-05-23T08:16:57;100778.19;;;23.27;43.93
9695;BME280;4690;52.422;13.486;2023-05-23T08:19:23;100782.19;;;23.48;43.53
9695;BME280;4690;52.422;13.486;2023-05-23T08:21:49;100782.16;;;23.76;44.75
9695;BME280;4690;52.422;13.486;2023-05-23T08:24:15;100772.97;;;23.98;43.49
9695;BME280;4690;52.422;13.486;2023-05-23T08:26:41;100778.22;;;24.13;42.92
9695;BME280;4690;52.422;13.486;2023-05-23T08:29:07;100779.47;;;24.30;41.90
9695;BME280;4690;52.422;13.486;2023-05-23T08:31:35;100786.06;;;24.48;43.61
9695;BME280;4690;52.422;13.486;2023-05-23T08:34:01;100784.38;;;24.69;44.09
9695;BME280;4690;52.422;13.486;2023-05-23T08:36:26;100786.91;;;24.79;41.44
9695;BME280;4690;52.422;13.486;2023-05-23T08:38:52;100794.03;;;24.86;40.83
9695;BME280;4690;52.422;13.486;2023-05-23T08:41:20;100796.03;;;24.94;40.32
9695;BME280;4690;52.422;13.486;2023-05-23T08:43:46;100796.88;;;24.94;40.07
9695;BME280;4690;52.422;13.486;2023-05-23T08:46:14;100798.66;;;24.90;39.61
9695;BME280;4690;52.422;13.486;2023-05-23T08:48:42;100810.44;;;24.70;40.00
9695;BME280;4690;52.422;13.486;2023-05-23T08:51:13;100805.09;;;24.59;39.96
9695;BME280;4690;52.422;13.486;2023-05-23T08:53:41;100801.28;;;24.55;40.74
9695;BME280;4690;52.422;13.486;2023-05-23T08:56:19;100808.34;;;24.53;40.90
9695;BME280;4690;52.422;13.486;2023-05-23T08:58:45;100810.69;;;24.59;41.65
9695;BME280;4690;52.422;13.486;2023-05-23T09:01:14;100807.81;;;24.73;42.72
9695;BME280;4690;52.422;13.486;2023-05-23T09:03:43;100815.28;;;24.78;43.34
9695;BME280;4690;52.422;13.486;2023-05-23T09:06:09;100809.88;;;24.90;42.96
9695;BME280;4690;52.422;13.486;2023-05-23T09:08:36;100817.03;;;25.05;44.08
9695;BME280;4690;52.422;13.486;2023-05-23T09:11:04;100816.34;;;25.31;42.82
9695;BME280;4690;52.422;13.486;2023-05-23T09:13:32;100819.56;;;25.55;41.48
9695;BME280;4690;52.422;13.486;2023-05-23T09:18:33;100817.97;;;25.80;40.75
9695;BME280;4690;52.422;13.486;2023-05-23T09:21:01;100819.34;;;25.91;42.28
9695;BME280;4690;52.422;13.486;2023-05-23T09:23:32;100822.50;;;26.07;41.87
9695;BME280;4690;52.422;13.486;2023-05-23T09:26:07;100826.28;;;26.03;41.24
9695;BME280;4690;52.422;13.486;2023-05-23T09:28:35;100826.94;;;25.91;43.47
9695;BME280;4690;52.422;13.486;2023-05-23T09:31:04;100822.97;;;25.83;43.31
9695;BME280;4690;52.422;13.486;2023-05-23T09:33:45;100834.84;;;25.89;43.99
9695;BME280;4690;52.422;13.486;2023-05-23T09:36:12;100827.59;;;25.88;43.30
9695;BME280;4690;52.422;13.486;2023-05-23T09:38:41;100827.59;;;25.88;44.20
9695;BME280;4690;52.422;13.486;2023-05-23T09:41:07;100834.47;;;25.82;44.97
9695;BME280;4690;52.422;13.486;2023-05-23T09:43:49;100829.50;;;25.79;44.17
9695;BME280;4690;52.422;13.486;2023-05-23T09:46:18;100831.84;;;25.77;44.78
9695;BME280;4690;52.422;13.486;2023-05-23T09:48:50;100846.50;;;25.65;43.72
9695;BME280;4690;52.422;13.486;2023-05-23T09:51:20;100839.72;;;25.57;44.70
9695;BME280;4690;52.422;13.486;2023-05-23T09:53:46;100840.06;;;25.64;43.38
9695;BME280;4690;52.422;13.486;2023-05-23T09:56:17;100845.34;;;25.66;44.00
9695;BME280;4690;52.422;13.486;2023-05-23T09:58:48;100859.50;;;25.52;40.92
9695;BME280;4690;52.422;13.486;2023-05-23T10:01:15;100845.06;;;25.27;42.23
9695;BME280;4690;52.422;13.486;2023-05-23T10:03:50;100853.44;;;25.19;43.77
9695;BME280;4690;52.422;13.486;2023-05-23T10:06:33;100849.31;;;24.94;43.92
9695;BME280;4690;52.422;13.486;2023-05-23T10:09:09;100856.22;;;24.88;46.60
9695;BME280;4690;52.422;13.486;2023-05-23T10:15:01;100855.03;;;24.89;46.60
9695;BME280;4690;52.422;13.486;2023-05-23T10:18:20;100844.69;;;24.89;48.34
9695;BME280;4690;52.422;13.486;2023-05-23T10:20:53;100836.47;;;24.93;47.45
9695;BME280;4690;52.422;13.486;2023-05-23T10:23:21;100847.66;;;24.93;48.95
9695;BME280;4690;52.422;13.486;2023-05-23T10:25:47;100851.00;;;24.95;49.74
9695;BME280;4690;52.422;13.486;2023-05-23T10:28:14;100851.59;;;24.92;49.63
9695;BME280;4690;52.422;13.486;2023-05-23T10:30:40;100845.00;;;24.88;49.68
9695;BME280;4690;52.422;13.486;2023-05-23T10:33:08;100844.69;;;24.89;49.35
9695;BME280;4690;52.422;13.486;2023-05-23T10:35:59;100841.03;;;24.89;50.24
9695;BME280;4690;52.422;13.486;2023-05-23T10:38:57;100848.69;;;24.74;50.92
9695;BME280;4690;52.422;13.486;2023-05-23T10:41:38;100839.53;;;24.82;51.02
9695;BME280;4690;52.422;13.486;2023-05-23T10:44:27;100838.38;;;24.83;50.32
9695;BME280;4690;52.422;13.486;2023-05-23T10:46:57;100856.84;;;24.85;50.79
9695;BME280;4690;52.422;13.486;2023-05-23T10:49:51;100857.56;;;24.68;52.08
9695;BME280;4690;52.422;13.486;2023-05-23T10:52:17;100855.69;;;24.41;53.57
9695;BME280;4690;52.422;13.486;2023-05-23T10:54:47;100850.97;;;24.27;53.45
9695;BME280;4690;52.422;13.486;2023-05-23T10:57:19;100850.56;;;24.20;54.28
9695;BME280;4690;52.422;13.486;2023-05-23T10:59:48;100862.22;;;24.13;54.16
9695;BME280;4690;52.422;13.486;2023-05-23T11:02:18;100870.94;;;24.12;54.62
9695;BME280;4690;52.422;13.486;2023-05-23T11:05:27;100872.31;;;23.87;55.14
9695;BME280;4690;52.422;13.486;2023-05-23T11:08:14;100874.00;;;23.88;56.08
9695;BME280;4690;52.422;13.486;2023-05-23T11:10:54;100881.75;;;23.63;56.31
9695;BME280;4690;52.422;13.486;2023-05-23T11:13:22;100877.72;;;23.56;57.18
9695;BME280;4690;52.422;13.486;2023-05-23T11:15:48;100879.06;;;23.44;57.29
9695;BME280;4690;52.422;13.486;2023-05-23T11:18:26;100878.84;;;23.27;58.81
9695;BME280;4690;52.422;13.486;2023-05-23T11:20:53;100873.53;;;23.25;57.88
9695;BME280;4690;52.422;13.486;2023-05-23T11:23:21;100882.19;;;23.43;59.61
9695;BME280;4690;52.422;13.486;2023-05-23T11:25:50;100885.72;;;23.48;58.29
9695;BME280;4690;52.422;13.486;2023-05-23T11:28:19;100880.59;;;23.50;57.56
9695;BME280;4690;52.422;13.486;2023-05-23T11:30:48;100878.34;;;23.39;57.93
9695;BME280;4690;52.422;13.486;2023-05-23T11:33:15;100879.28;;;23.34;58.19
9695;BME280;4690;52.422;13.486;2023-05-23T11:35:48;100878.41;;;23.34;58.50
9695;BME280;4690;52.422;13.486;2023-05-23T11:38:16;100877.06;;;23.31;57.64
9695;BME280;4690;52.422;13.486;2023-05-23T11:40:45;100884.41;;;23.13;58.02
9695;BME280;4690;52.422;13.486;2023-05-23T11:43:16;100888.09;;;22.95;58.03
9695;BME280;4690;52.422;13.486;2023-05-23T11:45:42;100898.59;;;22.84;59.02
9695;BME280;4690;52.422;13.486;2023-05-23T11:48:14;100889.72;;;22.63;59.15
9695;BME280;4690;52.422;13.486;2023-05-23T11:50:50;100888.69;;;22.59;60.17
9695;BME280;4690;52.422;13.486;2023-05-23T11:53:18;100886.63;;;22.65;60.48
9695;BME280;4690;52.422;13.486;2023-05-23T11:55:57;100892.75;;;22.67;60.39
9695;BME280;4690;52.422;13.486;2023-05-23T11:58:34;100898.78;;;22.74;62.71
9695;BME280;4690;52.422;13.486;2023-05-23T12:01:02;100898.84;;;22.69;63.96
9695;BME280;4690;52.422;13.486;2023-05-23T12:03:29;100901.56;;;22.74;64.68
9695;BME280;4690;52.422;13.486;2023-05-23T12:05:55;100905.19;;;22.74;64.43
9695;BME280;4690;52.422;13.486;2023-05-23T12:08:21;100905.88;;;22.66;62.15
9695;BME280;4690;52.422;13.486;2023-05-23T12:10:57;100904.50;;;22.64;61.58
9695;BME280;4690;52.422;13.486;2023-05-23T12:13:25;100910.22;;;22.58;61.27
9695;BME280;4690;52.422;13.486;2023-05-23T12:15:58;100911.09;;;22.54;62.17
9695;BME280;4690;52.422;13.486;2023-05-23T12:18:29;100913.06;;;22.53;61.77
9695;BME280;4690;52.422;13.486;2023-05-23T12:21:02;100913.69;;;22.50;61.65
9695;BME280;4690;52.422;13.486;2023-05-23T12:23:31;100901.38;;;22.51;60.86
9695;BME280;4690;52.422;13.486;2023-05-23T12:25:57;100908.19;;;22.45;60.52
9695;BME280;4690;52.422;13.486;2023-05-23T12:31:22;100905.38;;;22.45;61.11
9695;BME280;4690;52.422;13.486;2023-05-23T12:33:51;100898.66;;;22.46;59.46
9695;BME280;4690;52.422;13.486;2023-05-23T12:36:23;100915.56;;;22.55;60.13
9695;BME280;4690;52.422;13.486;2023-05-23T12:38:49;100910.50;;;22.57;59.09
9695;BME280;4690;52.422;13.486;2023-05-23T12:41:18;100918.88;;;22.57;59.04
9695;BME280;4690;52.422;13.486;2023-05-23T12:43:52;100911.50;;;22.47;58.88
9695;BME280;4690;52.422;13.486;2023-05-23T12:46:21;100909.91;;;22.41;58.98
9695;BME280;4690;52.422;13.486;2023-05-23T12:48:47;100912.09;;;22.25;59.63
9695;BME280;4690;52.422;13.486;2023-05-23T12:51:13;100919.41;;;22.21;60.25
9695;BME280;4690;52.422;13.486;2023-05-23T12:53:40;100909.41;;;22.15;60.30
9695;BME280;4690;52.422;13.486;2023-05-23T12:56:06;100920.59;;;22.15;60.72
9695;BME280;4690;52.422;13.486;2023-05-23T12:58:31;100912.06;;;22.06;60.39
9695;BME280;4690;52.422;13.486;2023-05-23T13:00:58;100915.72;;;22.02;60.54
9695;BME280;4690;52.422;13.486;2023-05-23T13:03:24;100920.56;;;21.96;60.25
9695;BME280;4690;52.422;13.486;2023-05-23T13:05:50;100917.84;;;21.91;59.91
9695;BME280;4690;52.422;13.486;2023-05-23T13:08:17;100914.19;;;21.90;60.78
9695;BME280;4690;52.422;13.486;2023-05-23T13:10:44;100921.31;;;21.83;60.44
9695;BME280;4690;52.422;13.486;2023-05-23T13:13:10;100922.34;;;21.87;60.67
9695;BME280;4690;52.422;13.486;2023-05-23T13:15:36;100915.94;;;21.86;60.09
9695;BME280;4690;52.422;13.486;2023-05-23T13:18:03;100915.56;;;21.93;60.69
9695;BME280;4690;52.422;13.486;2023-05-23T13:20:29;100910.47;;;22.00;60.73
9695;BME280;4690;52.422;13.486;2023-05-23T13:22:58;100911.75;;;22.08;59.80
9695;BME280;4690;52.422;13.486;2023-05-23T13:25:25;100921.69;;;21.95;59.35
9695;BME280;4690;52.422;13.486;2023-05-23T13:27:51;100906.69;;;21.91;60.00
9695;BME280;4690;52.422;13.486;2023-05-23T13:30:19;100912.78;;;21.93;59.79
9695;BME280;4690;52.422;13.486;2023-05-23T13:32:45;100921.69;;;21.95;60.58